createdAt,value
2023-05-08T00:00:50.728Z,13.6
2023-05-08T00:05:50.733Z,13.6
2023-05-08T00:10:50.698Z,13.5
2023-05-08T00:15:50.763Z,13.4
2023-05-08T00:20:50.753Z,13.3
2023-05-08T00:25:50.759Z,13.1
2023-05-08T00:30:50.839Z,12.9
2023-05-08T00:35:50.706Z,12.9
2023-05-08T00:40:50.701Z,12.9
2023-05-08T00:45:50.773Z,12.9
2023-05-08T00:50:50.756Z,12.8
2023-05-08T00:55:50.750Z,12.8
2023-05-08T01:00:50.849Z,12.7
2023-05-08T01:05:50.769Z,12.7
2023-05-08T01:10:50.700Z,12.6
2023-05-08T01:15:50.720Z,12.6
2023-05-08T01:20:50.745Z,12.8
2023-05-08T01:25:50.754Z,12.8
2023-05-08T01:30:50.806Z,12.8
2023-05-08T01:35:50.793Z,12.7
2023-05-08T01:40:50.788Z,12.8
2023-05-08T01:45:51.034Z,12.8
2023-05-08T01:50:50.814Z,12.6
2023-05-08T01:55:51.110Z,12.6
2023-05-08T02:00:50.728Z,12.6
2023-05-08T02:05:50.779Z,12.6
2023-05-08T02:10:50.758Z,12.6
2023-05-08T02:15:50.732Z,12.6
2023-05-08T02:20:50.751Z,12.6
2023-05-08T02:25:50.778Z,12.4
2023-05-08T02:30:50.744Z,12.3
2023-05-08T02:35:50.842Z,12.3
2023-05-08T02:40:50.793Z,12.2
2023-05-08T02:45:50.826Z,12.1
2023-05-08T02:50:50.814Z,12.1
2023-05-08T02:55:50.785Z,11.9
2023-05-08T03:00:50.745Z,11.9
2023-05-08T03:05:50.855Z,11.8
2023-05-08T03:10:51.027Z,11.7
2023-05-08T03:15:50.794Z,11.6
2023-05-08T03:20:50.732Z,11.5
2023-05-08T03:25:50.756Z,11.4
2023-05-08T03:30:50.771Z,11.4
2023-05-08T03:35:50.790Z,11.4
2023-05-08T03:40:51.060Z,11.4
2023-05-08T03:45:50.716Z,11.4
2023-05-08T03:50:50.816Z,11.4
2023-05-08T03:55:50.808Z,11.3
2023-05-08T04:00:50.846Z,11.3
2023-05-08T04:05:50.786Z,11.4
2023-05-08T04:10:50.777Z,11.4
2023-05-08T04:15:50.736Z,11.6
2023-05-08T04:20:50.764Z,11.4
2023-05-08T04:25:50.795Z,11.3
2023-05-08T04:30:50.808Z,11.3
2023-05-08T04:35:50.820Z,11.4
2023-05-08T04:40:50.828Z,11.3
2023-05-08T04:45:50.916Z,11.4
2023-05-08T04:50:50.812Z,11.4
2023-05-08T04:55:50.835Z,11.6
2023-05-08T05:00:50.814Z,11.7
2023-05-08T05:05:50.838Z,11.6
2023-05-08T05:10:50.858Z,11.8
2023-05-08T05:15:50.786Z,12
2023-05-08T05:20:50.887Z,12.1
2023-05-08T05:25:50.804Z,12
2023-05-08T05:30:50.803Z,12.2
2023-05-08T05:35:51.038Z,12.3
2023-05-08T05:40:50.748Z,12.5
2023-05-08T05:45:50.817Z,12.5
2023-05-08T05:50:50.814Z,12.6
2023-05-08T05:55:50.828Z,12.8
2023-05-08T06:00:50.830Z,12.6
2023-05-08T06:05:50.777Z,12.7
2023-05-08T06:10:50.835Z,12.9
2023-05-08T06:15:50.784Z,13.2
2023-05-08T06:20:50.784Z,13.4
2023-05-08T06:25:50.830Z,13.4
2023-05-08T06:30:50.840Z,13.6
2023-05-08T06:35:50.830Z,14
2023-05-08T06:40:51.051Z,13.9
2023-05-08T06:45:50.919Z,13.9
2023-05-08T06:50:50.803Z,13.8
2023-05-08T06:55:50.824Z,13.9
2023-05-08T07:00:50.822Z,13.9
2023-05-08T07:05:50.811Z,14.3
2023-05-08T07:10:51.821Z,14.4
2023-05-08T07:15:50.870Z,14.6
2023-05-08T07:20:50.799Z,14.6
2023-05-08T07:25:50.888Z,15.2
2023-05-08T07:30:50.864Z,14.8
2023-05-08T07:35:50.818Z,15.3
2023-05-08T07:40:50.827Z,15.4
2023-05-08T07:45:50.980Z,15.1
2023-05-08T07:50:50.825Z,15.3
2023-05-08T07:55:50.812Z,15.9
2023-05-08T08:00:50.896Z,16.1
2023-05-08T08:05:50.840Z,16.2
2023-05-08T08:10:51.062Z,16.6
2023-05-08T08:15:51.003Z,16.8
2023-05-08T08:20:50.901Z,16.8
2023-05-08T08:25:51.343Z,17
2023-05-08T08:30:50.990Z,17.2
2023-05-08T08:35:50.835Z,17.4
2023-05-08T08:40:50.904Z,17.1
2023-05-08T08:45:50.878Z,16.8
2023-05-08T08:50:50.834Z,17.1
2023-05-08T08:55:50.817Z,17.5
2023-05-08T09:00:50.888Z,17.1
2023-05-08T09:05:50.907Z,17.7
2023-05-08T09:10:50.876Z,17.9
2023-05-08T09:15:51.063Z,18.2
2023-05-08T09:20:50.885Z,18.1
2023-05-08T09:25:50.884Z,18.3
2023-05-08T09:30:50.842Z,18.4
2023-05-08T09:35:51.142Z,18.7
2023-05-08T09:40:51.166Z,19.3
2023-05-08T09:45:51.207Z,18.8
2023-05-08T09:50:50.837Z,18.8
2023-05-08T09:55:50.853Z,19.2
2023-05-08T10:00:50.873Z,18.7
2023-05-08T10:05:51.374Z,19.1
2023-05-08T10:10:50.968Z,19.4
2023-05-08T10:15:50.946Z,18.9
2023-05-08T10:20:50.849Z,19.4
2023-05-08T10:25:52.092Z,18.7
2023-05-08T10:30:50.890Z,19.1
2023-05-08T10:35:50.835Z,18.6
2023-05-08T10:40:50.796Z,18.6
2023-05-08T10:45:51.041Z,19.1
2023-05-08T10:50:50.913Z,19.4
2023-05-08T10:55:50.933Z,18.4
2023-05-08T11:00:50.887Z,18.9
2023-05-08T11:05:50.851Z,19.1
2023-05-08T11:10:50.874Z,19.2
2023-05-08T11:15:50.904Z,19.9
2023-05-08T11:20:50.888Z,20.1
2023-05-08T11:25:50.877Z,19.6
2023-05-08T11:30:51.110Z,19.4
2023-05-08T11:35:51.013Z,19.4
2023-05-08T11:40:50.910Z,19.4
2023-05-08T11:45:50.939Z,19.8
2023-05-08T11:50:50.859Z,19.6
2023-05-08T11:55:50.899Z,19.6
2023-05-08T12:00:51.040Z,19.4
2023-05-08T12:05:50.921Z,19.1
2023-05-08T12:10:50.929Z,19.1
2023-05-08T12:15:50.936Z,19.1
2023-05-08T12:20:50.899Z,19.6
2023-05-08T12:25:51.741Z,18.9
2023-05-08T12:30:50.893Z,19.6
2023-05-08T12:35:51.054Z,19.6
2023-05-08T12:40:50.880Z,20
2023-05-08T12:45:50.948Z,20.1
2023-05-08T12:50:51.138Z,20
2023-05-08T12:55:50.989Z,19.9
2023-05-08T13:00:51.014Z,19.9
2023-05-08T13:05:50.983Z,20.2
2023-05-08T13:10:50.909Z,20
2023-05-08T13:15:50.966Z,20.6
2023-05-08T13:20:51.182Z,20.8
2023-05-08T13:25:50.969Z,21.2
2023-05-08T13:30:50.872Z,20.8
2023-05-08T13:35:51.049Z,19.9
2023-05-08T13:40:50.883Z,20
2023-05-08T13:45:50.994Z,19.9
2023-05-08T13:50:50.964Z,20.3
2023-05-08T13:55:50.932Z,20.5
2023-05-08T14:00:50.910Z,20.4
2023-05-08T14:05:50.904Z,20.5
2023-05-08T14:10:50.905Z,20.6
2023-05-08T14:15:51.022Z,20.1
2023-05-08T14:20:57.103Z,19.4
2023-05-08T14:25:50.995Z,19.9
2023-05-08T14:30:50.917Z,20.6
2023-05-08T14:35:50.893Z,20.5
2023-05-08T14:40:50.966Z,20.4
2023-05-08T14:45:51.061Z,20.6
2023-05-08T14:50:51.022Z,20.8
2023-05-08T14:55:52.225Z,20.5
2023-05-08T15:00:50.959Z,20.4
2023-05-08T15:05:50.954Z,20.6
2023-05-08T15:10:50.978Z,20.7
2023-05-08T15:15:51.142Z,20.3
2023-05-08T15:20:51.020Z,20.4
2023-05-08T15:25:50.959Z,20.3
2023-05-08T15:30:51.097Z,20.3
2023-05-08T15:35:50.996Z,20
2023-05-08T15:40:50.977Z,20.3
2023-05-08T15:45:50.981Z,20.1
2023-05-08T15:50:51.044Z,20.1
2023-05-08T15:55:50.967Z,19.9
2023-05-08T16:00:51.011Z,20
2023-05-08T16:05:50.944Z,19.8
2023-05-08T16:10:50.977Z,19.7
2023-05-08T16:15:50.999Z,20
2023-05-08T16:20:50.988Z,19.8
2023-05-08T16:25:50.998Z,19.8
2023-05-08T16:30:50.912Z,19.7
2023-05-08T16:35:51.001Z,19.4
2023-05-08T16:40:50.997Z,19.2
2023-05-08T16:45:51.040Z,19.1
2023-05-08T16:50:51.089Z,19.3
2023-05-08T16:55:50.985Z,19.4
2023-05-08T17:00:50.987Z,19.2
2023-05-08T17:05:51.003Z,18.9
2023-05-08T17:10:50.938Z,18.9
2023-05-08T17:15:51.140Z,18.8
2023-05-08T17:20:50.995Z,18.7
2023-05-08T17:25:50.909Z,18.5
2023-05-08T17:30:50.913Z,18.3
2023-05-08T17:35:51.072Z,18.1
2023-05-08T17:40:50.955Z,17.9
2023-05-08T17:45:51.017Z,17.8
2023-05-08T17:50:51.012Z,17.6
2023-05-08T17:55:51.233Z,17.6
2023-05-08T18:00:51.022Z,17.4
2023-05-08T18:05:51.027Z,17.3
2023-05-08T18:10:51.013Z,17.3
2023-05-08T18:15:50.997Z,17.1
2023-05-08T18:20:51.105Z,17
2023-05-08T18:25:51.110Z,16.9
2023-05-08T18:30:50.983Z,16.8
2023-05-08T18:35:51.052Z,16.7
2023-05-08T18:40:50.983Z,16.6
2023-05-08T18:45:51.001Z,16.6
2023-05-08T18:50:50.999Z,16.4
2023-05-08T18:55:50.995Z,16.4
2023-05-08T19:00:51.003Z,16.3
2023-05-08T19:05:50.971Z,16.1
2023-05-08T19:10:50.997Z,16
2023-05-08T19:15:50.991Z,16
2023-05-08T19:20:50.997Z,15.9
2023-05-08T19:25:50.992Z,15.8
2023-05-08T19:30:51.036Z,15.8
2023-05-08T19:35:51.007Z,15.7
2023-05-08T19:40:56.931Z,15.6
2023-05-08T19:45:51.143Z,15.6
2023-05-08T19:50:52.777Z,15.4
2023-05-08T19:55:51.001Z,15.4
2023-05-08T20:00:51.503Z,15.3
2023-05-08T20:05:51.049Z,15.2
2023-05-08T20:10:50.953Z,15.1
2023-05-08T20:15:51.056Z,15
2023-05-08T20:20:50.998Z,15
2023-05-08T20:25:50.997Z,14.9
2023-05-08T20:30:51.101Z,14.9
2023-05-08T20:35:51.055Z,14.9
2023-05-08T20:40:51.013Z,14.9
2023-05-08T20:45:51.060Z,14.8
2023-05-08T20:50:50.988Z,14.8
2023-05-08T20:55:51.053Z,14.8
2023-05-08T21:00:51.052Z,14.8
2023-05-08T21:05:51.030Z,14.7
2023-05-08T21:10:51.024Z,14.6
2023-05-08T21:15:51.032Z,14.4
2023-05-08T21:20:51.048Z,14.3
2023-05-08T21:25:50.996Z,14.1
2023-05-08T21:30:51.030Z,14
2023-05-08T21:35:51.053Z,13.9
2023-05-08T21:40:50.998Z,13.8
2023-05-08T21:45:51.056Z,13.8
2023-05-08T21:50:50.968Z,13.8
2023-05-08T21:55:51.024Z,13.8
2023-05-08T22:00:51.043Z,13.8
2023-05-08T22:05:51.054Z,13.7
2023-05-08T22:10:51.172Z,13.7
2023-05-08T22:15:51.040Z,13.7
2023-05-08T22:20:51.015Z,13.7
2023-05-08T22:25:50.986Z,13.7
2023-05-08T22:30:51.002Z,13.7
2023-05-08T22:35:50.990Z,13.7
2023-05-08T22:40:51.057Z,13.8
2023-05-08T22:45:51.045Z,13.8
2023-05-08T22:50:52.227Z,13.8
2023-05-08T22:55:50.988Z,13.8
2023-05-08T23:00:51.000Z,13.8
2023-05-08T23:05:51.002Z,13.8
2023-05-08T23:10:51.084Z,13.8
2023-05-08T23:15:51.100Z,13.7
2023-05-08T23:20:51.068Z,13.6
2023-05-08T23:25:51.070Z,13.6
2023-05-08T23:30:51.020Z,13.5
2023-05-08T23:35:51.052Z,13.6
2023-05-08T23:40:51.105Z,13.6
2023-05-08T23:45:51.048Z,13.6
2023-05-08T23:50:51.014Z,13.4
2023-05-08T23:55:51.016Z,13.4
